createdAt,value
2023-03-29T00:00:51.574Z,1.90
2023-03-29T00:03:19.154Z,1.90
2023-03-29T00:05:46.551Z,1.95
2023-03-29T00:08:14.954Z,2.15
2023-03-29T00:10:42.413Z,2.05
2023-03-29T00:13:09.609Z,1.75
2023-03-29T00:15:36.890Z,1.95
2023-03-29T00:18:04.194Z,1.70
2023-03-29T00:20:34.239Z,1.70
2023-03-29T00:23:04.194Z,2.17
2023-03-29T00:25:31.431Z,2.08
2023-03-29T00:27:58.659Z,2.13
2023-03-29T00:30:26.155Z,2.10
2023-03-29T00:32:53.359Z,2.00
2023-03-29T00:35:21.147Z,1.73
2023-03-29T00:37:51.033Z,2.10
2023-03-29T00:40:18.429Z,1.80
2023-03-29T00:42:46.273Z,1.88
2023-03-29T00:45:13.604Z,1.85
2023-03-29T00:47:44.247Z,2.10
2023-03-29T00:50:31.616Z,2.00
2023-03-29T00:53:13.097Z,2.03
2023-03-29T00:55:43.942Z,1.67
2023-03-29T00:58:15.001Z,2.13
2023-03-29T01:01:02.431Z,2.00
2023-03-29T01:03:33.054Z,1.85
2023-03-29T01:06:02.446Z,1.70
2023-03-29T01:08:32.677Z,1.90
2023-03-29T01:11:07.178Z,1.70
2023-03-29T01:13:49.830Z,2.17
2023-03-29T01:16:18.945Z,2.10
2023-03-29T01:18:49.692Z,1.90
2023-03-29T01:21:17.076Z,2.17
2023-03-29T01:23:53.430Z,2.50
2023-03-29T01:26:39.202Z,2.47
2023-03-29T01:29:32.779Z,1.98
2023-03-29T01:32:22.321Z,2.30
2023-03-29T01:34:53.592Z,2.15
2023-03-29T01:37:39.650Z,2.15
2023-03-29T01:40:07.144Z,1.90
2023-03-29T01:42:51.442Z,2.20
2023-03-29T01:45:31.513Z,2.05
2023-03-29T01:48:06.183Z,2.22
2023-03-29T01:50:38.017Z,1.92
2023-03-29T01:53:20.588Z,2.20
2023-03-29T01:55:53.030Z,2.30
2023-03-29T01:58:22.712Z,2.30
2023-03-29T02:00:50.805Z,2.00
2023-03-29T02:03:19.571Z,2.10
2023-03-29T02:05:47.837Z,2.33
2023-03-29T02:08:16.237Z,2.50
2023-03-29T02:10:43.704Z,2.45
2023-03-29T02:13:11.759Z,2.33
2023-03-29T02:15:39.860Z,2.40
2023-03-29T02:18:07.420Z,2.35
2023-03-29T02:20:40.620Z,2.58
2023-03-29T02:23:14.671Z,2.28
2023-03-29T02:25:43.521Z,2.15
2023-03-29T02:28:10.925Z,2.40
2023-03-29T02:30:56.915Z,2.20
2023-03-29T02:33:27.373Z,2.17
2023-03-29T02:36:07.074Z,2.40
2023-03-29T02:38:34.827Z,2.60
2023-03-29T02:41:03.023Z,2.25
2023-03-29T02:43:31.011Z,2.33
2023-03-29T02:45:58.569Z,2.40
2023-03-29T02:48:27.229Z,2.55
2023-03-29T02:50:56.774Z,2.25
2023-03-29T02:53:25.329Z,2.50
2023-03-29T02:55:53.837Z,2.20
2023-03-29T02:58:28.693Z,2.40
2023-03-29T03:00:57.409Z,2.30
2023-03-29T03:03:25.517Z,2.55
2023-03-29T03:05:53.870Z,2.30
2023-03-29T03:08:21.153Z,2.50
2023-03-29T03:10:48.799Z,2.33
2023-03-29T03:13:16.155Z,2.22
2023-03-29T03:15:43.983Z,2.35
2023-03-29T03:18:12.683Z,2.60
2023-03-29T03:20:40.744Z,2.67
2023-03-29T03:23:09.676Z,2.40
2023-03-29T03:25:37.651Z,2.45
2023-03-29T03:28:05.064Z,2.30
2023-03-29T03:30:33.846Z,2.47
2023-03-29T03:33:30.553Z,2.58
2023-03-29T03:36:16.657Z,2.50
2023-03-29T03:38:46.655Z,2.25
2023-03-29T03:41:13.995Z,2.45
2023-03-29T03:43:42.896Z,2.38
2023-03-29T03:46:11.244Z,2.80
2023-03-29T03:48:38.638Z,2.47
2023-03-29T03:51:10.439Z,2.40
2023-03-29T03:53:37.937Z,2.40
2023-03-29T03:56:14.029Z,2.40
2023-03-29T03:59:04.702Z,2.60
2023-03-29T04:01:47.066Z,3.15
2023-03-29T04:04:20.938Z,2.45
2023-03-29T04:07:04.969Z,2.72
2023-03-29T04:09:39.829Z,2.70
2023-03-29T04:12:23.002Z,2.40
2023-03-29T04:14:50.908Z,2.78
2023-03-29T04:17:22.608Z,2.72
2023-03-29T04:19:54.801Z,2.63
2023-03-29T04:22:22.368Z,2.67
2023-03-29T04:24:49.787Z,2.75
2023-03-29T04:27:53.109Z,2.65
2023-03-29T04:30:39.212Z,3.08
2023-03-29T04:33:14.574Z,2.78
2023-03-29T04:35:45.449Z,3.08
2023-03-29T04:38:16.750Z,2.42
2023-03-29T04:40:45.842Z,2.70
2023-03-29T04:43:40.334Z,2.70
2023-03-29T04:46:27.209Z,2.90
2023-03-29T04:49:14.961Z,2.83
2023-03-29T04:51:46.374Z,2.88
2023-03-29T04:54:16.336Z,2.60
2023-03-29T04:56:58.947Z,2.60
2023-03-29T04:59:28.706Z,2.85
2023-03-29T05:01:56.448Z,2.88
2023-03-29T05:04:24.677Z,2.55
2023-03-29T05:07:19.152Z,2.88
2023-03-29T05:09:47.539Z,2.88
2023-03-29T05:12:14.963Z,2.40
2023-03-29T05:14:53.501Z,2.97
2023-03-29T05:17:23.984Z,3.08
2023-03-29T05:19:51.384Z,2.50
2023-03-29T05:22:20.219Z,2.60
2023-03-29T05:24:47.799Z,2.80
2023-03-29T05:27:17.992Z,2.50
2023-03-29T05:29:57.167Z,2.80
2023-03-29T05:32:30.374Z,2.47
2023-03-29T05:34:57.790Z,2.30
2023-03-29T05:37:26.639Z,2.55
2023-03-29T05:40:05.921Z,2.45
2023-03-29T05:42:38.578Z,6.47
2023-03-29T05:45:08.946Z,5.10
2023-03-29T05:47:36.884Z,4.63
2023-03-29T05:50:04.980Z,4.10
2023-03-29T05:52:32.340Z,3.85
2023-03-29T05:54:59.602Z,3.25
2023-03-29T05:57:27.786Z,3.33
2023-03-29T05:59:56.475Z,3.35
2023-03-29T06:02:26.486Z,2.85
2023-03-29T06:04:55.293Z,3.15
2023-03-29T06:07:24.481Z,3.13
2023-03-29T06:10:15.614Z,3.40
2023-03-29T06:12:47.766Z,3.47
2023-03-29T06:15:15.947Z,3.90
2023-03-29T06:17:59.311Z,3.75
2023-03-29T06:20:27.062Z,3.63
2023-03-29T06:23:00.389Z,3.60
2023-03-29T06:25:27.677Z,3.47
2023-03-29T06:27:56.181Z,3.40
2023-03-29T06:30:23.401Z,3.80
2023-03-29T06:32:54.649Z,3.45
2023-03-29T06:35:43.786Z,3.67
2023-03-29T06:38:15.186Z,3.40
2023-03-29T06:41:04.029Z,3.70
2023-03-29T06:43:45.536Z,3.22
2023-03-29T06:46:16.979Z,3.30
2023-03-29T06:48:56.467Z,3.30
2023-03-29T06:51:29.479Z,3.20
2023-03-29T06:53:56.980Z,3.22
2023-03-29T06:56:24.246Z,3.70
2023-03-29T06:59:02.106Z,3.25
2023-03-29T07:01:39.070Z,3.58
2023-03-29T07:04:24.707Z,3.03
2023-03-29T07:07:19.989Z,3.63
2023-03-29T07:09:55.577Z,3.30
2023-03-29T07:12:23.180Z,3.88
2023-03-29T07:14:51.307Z,4.00
2023-03-29T07:17:18.649Z,3.60
2023-03-29T07:19:46.769Z,3.75
2023-03-29T07:22:52.960Z,3.95
2023-03-29T07:25:22.350Z,3.53
2023-03-29T07:30:19.140Z,3.75
2023-03-29T07:32:46.851Z,3.65
2023-03-29T07:35:28.081Z,3.70
2023-03-29T07:37:56.124Z,3.83
2023-03-29T07:40:24.810Z,4.05
2023-03-29T07:43:18.300Z,4.10
2023-03-29T07:45:46.787Z,4.60
2023-03-29T07:48:14.780Z,3.95
2023-03-29T07:50:59.252Z,3.92
2023-03-29T07:53:32.233Z,4.18
2023-03-29T07:56:02.843Z,4.60
2023-03-29T07:59:02.625Z,3.97
2023-03-29T08:01:30.935Z,4.53
2023-03-29T08:04:16.870Z,4.68
2023-03-29T08:07:07.139Z,4.20
2023-03-29T08:09:52.143Z,4.55
2023-03-29T08:12:24.989Z,4.38
2023-03-29T08:14:52.638Z,4.32
2023-03-29T08:17:27.346Z,4.88
2023-03-29T08:19:54.756Z,5.03
2023-03-29T08:22:24.104Z,5.15
2023-03-29T08:25:26.988Z,6.60
2023-03-29T08:27:55.111Z,6.10
2023-03-29T08:30:34.110Z,5.40
2023-03-29T08:33:02.960Z,5.47
2023-03-29T08:35:30.423Z,5.65
2023-03-29T08:38:17.995Z,5.32
2023-03-29T08:40:48.482Z,5.20
2023-03-29T08:43:35.215Z,6.03
2023-03-29T08:46:34.538Z,5.80
2023-03-29T08:49:13.872Z,5.30
2023-03-29T08:51:46.551Z,6.18
2023-03-29T08:54:24.962Z,5.93
2023-03-29T08:57:18.139Z,5.60
2023-03-29T08:59:51.896Z,5.88
2023-03-29T09:02:23.538Z,5.32
2023-03-29T09:05:08.721Z,5.82
2023-03-29T09:08:07.273Z,5.55
2023-03-29T09:10:39.449Z,5.70
2023-03-29T09:13:36.835Z,6.43
2023-03-29T09:16:12.488Z,6.40
2023-03-29T09:19:01.340Z,6.50
2023-03-29T09:21:46.686Z,5.95
2023-03-29T09:24:35.404Z,6.20
2023-03-29T09:27:11.023Z,6.68
2023-03-29T09:30:01.679Z,6.20
2023-03-29T09:32:44.037Z,6.32
2023-03-29T09:35:21.346Z,6.40
2023-03-29T09:37:51.278Z,6.50
2023-03-29T09:40:21.338Z,7.03
2023-03-29T09:43:13.606Z,6.50
2023-03-29T09:45:43.168Z,6.80
2023-03-29T09:50:46.921Z,6.97
2023-03-29T09:53:19.211Z,6.88
2023-03-29T09:55:55.495Z,6.78
2023-03-29T09:58:37.638Z,7.32
2023-03-29T10:01:10.525Z,7.50
2023-03-29T10:03:40.031Z,6.65
2023-03-29T10:06:12.249Z,7.45
2023-03-29T10:08:47.148Z,7.68
2023-03-29T10:11:18.698Z,7.20
2023-03-29T10:13:49.216Z,7.60
2023-03-29T10:16:21.977Z,8.32
2023-03-29T10:18:51.921Z,8.38
2023-03-29T10:21:20.969Z,8.48
2023-03-29T10:23:49.234Z,8.00
2023-03-29T10:26:25.217Z,8.25
2023-03-29T10:28:54.910Z,8.18
2023-03-29T10:31:22.817Z,8.80
2023-03-29T10:33:54.421Z,8.77
2023-03-29T10:36:22.532Z,8.45
2023-03-29T10:38:50.937Z,8.85
2023-03-29T10:41:18.727Z,9.05
2023-03-29T10:43:49.488Z,9.25
2023-03-29T10:46:22.197Z,8.80
2023-03-29T10:48:51.227Z,9.02
2023-03-29T10:51:19.761Z,9.27
2023-03-29T10:53:47.637Z,9.38
2023-03-29T10:56:14.975Z,9.27
2023-03-29T10:58:42.271Z,9.38
2023-03-29T11:01:15.606Z,9.18
2023-03-29T11:04:08.223Z,8.90
2023-03-29T11:06:46.141Z,9.23
2023-03-29T11:09:32.256Z,8.63
2023-03-29T11:12:14.832Z,8.73
2023-03-29T11:15:01.875Z,9.15
2023-03-29T11:17:35.269Z,9.75
2023-03-29T11:20:20.301Z,9.77
2023-03-29T11:22:51.812Z,9.32
2023-03-29T11:25:22.375Z,9.38
2023-03-29T11:27:53.686Z,9.85
2023-03-29T11:30:26.906Z,9.35
2023-03-29T11:32:54.509Z,10.23
2023-03-29T11:35:42.833Z,10.20
2023-03-29T11:38:29.145Z,10.43
2023-03-29T11:40:57.129Z,9.00
2023-03-29T11:43:36.995Z,10.15
2023-03-29T11:46:12.571Z,9.85
2023-03-29T11:49:01.562Z,10.10
2023-03-29T11:51:38.006Z,11.23
2023-03-29T11:54:08.876Z,10.80
2023-03-29T11:56:51.356Z,11.63
2023-03-29T11:59:34.171Z,11.32
2023-03-29T12:02:34.110Z,10.68
2023-03-29T12:05:04.398Z,11.10
2023-03-29T12:07:41.866Z,11.30
2023-03-29T12:10:29.455Z,12.02
2023-03-29T12:13:07.402Z,11.80
2023-03-29T12:15:45.828Z,12.43
2023-03-29T12:18:23.399Z,10.95
2023-03-29T12:20:53.674Z,11.70
2023-03-29T12:23:21.113Z,12.63
2023-03-29T12:26:00.645Z,12.65
2023-03-29T12:29:00.485Z,12.70
2023-03-29T12:31:46.616Z,13.23
2023-03-29T12:34:39.346Z,12.68
2023-03-29T12:37:32.714Z,12.10
2023-03-29T12:40:19.918Z,12.25
2023-03-29T12:43:07.746Z,12.18
2023-03-29T12:46:22.074Z,11.38
2023-03-29T12:48:51.884Z,12.13
2023-03-29T12:51:20.501Z,12.43
2023-03-29T12:53:51.349Z,12.77
2023-03-29T12:56:20.880Z,12.80
2023-03-29T12:58:53.755Z,12.27
2023-03-29T13:01:29.511Z,12.35
2023-03-29T13:06:28.748Z,12.27
2023-03-29T13:09:02.723Z,11.63
2023-03-29T13:11:41.407Z,12.40
2023-03-29T13:14:18.544Z,12.45
2023-03-29T13:16:46.145Z,11.30
2023-03-29T13:19:23.996Z,11.90
2023-03-29T13:22:06.598Z,12.35
2023-03-29T13:24:37.175Z,12.18
2023-03-29T13:27:25.103Z,12.00
2023-03-29T13:30:11.665Z,12.48
2023-03-29T13:32:57.895Z,12.57
2023-03-29T13:35:44.140Z,12.45
2023-03-29T13:38:36.074Z,12.77
2023-03-29T13:41:07.377Z,12.77
2023-03-29T13:43:36.653Z,13.05
2023-03-29T13:46:04.297Z,12.90
2023-03-29T13:48:33.667Z,12.85
2023-03-29T13:53:36.305Z,12.82
2023-03-29T13:56:03.965Z,13.32
2023-03-29T13:58:45.775Z,12.90
2023-03-29T14:01:39.368Z,13.15
2023-03-29T14:04:08.442Z,13.52
2023-03-29T14:06:37.405Z,12.65
2023-03-29T14:09:09.353Z,14.40
2023-03-29T14:11:36.969Z,14.15
2023-03-29T14:14:05.618Z,14.02
2023-03-29T14:16:35.904Z,14.85
2023-03-29T14:19:04.816Z,14.25
2023-03-29T14:21:32.176Z,13.65
2023-03-29T14:24:01.631Z,14.05
2023-03-29T14:26:33.503Z,13.43
2023-03-29T14:29:01.688Z,14.20
2023-03-29T14:31:33.966Z,14.27
2023-03-29T14:34:02.504Z,12.90
2023-03-29T14:36:31.320Z,14.20
2023-03-29T14:39:01.569Z,13.32
2023-03-29T14:41:32.994Z,13.73
2023-03-29T14:44:01.045Z,13.15
2023-03-29T14:46:28.803Z,13.85
2023-03-29T14:48:57.260Z,12.95
2023-03-29T14:51:30.547Z,13.32
2023-03-29T14:53:58.842Z,13.48
2023-03-29T14:56:26.454Z,12.95
2023-03-29T14:58:57.643Z,13.25
2023-03-29T15:01:26.741Z,12.45
2023-03-29T15:04:02.290Z,12.38
2023-03-29T15:06:30.391Z,12.05
2023-03-29T15:09:05.988Z,11.93
2023-03-29T15:11:35.249Z,11.13
2023-03-29T15:14:04.283Z,11.20
2023-03-29T15:16:32.902Z,11.07
2023-03-29T15:19:01.706Z,11.20
2023-03-29T15:21:33.788Z,10.45
2023-03-29T15:24:02.466Z,10.25
2023-03-29T15:26:31.868Z,10.40
2023-03-29T15:29:03.043Z,9.80
2023-03-29T15:31:34.959Z,9.48
2023-03-29T15:34:04.767Z,9.43
2023-03-29T15:36:33.635Z,9.32
2023-03-29T15:39:01.432Z,9.50
2023-03-29T15:41:29.314Z,9.02
2023-03-29T15:43:57.568Z,8.73
2023-03-29T15:46:24.902Z,9.40
2023-03-29T15:48:52.317Z,8.35
2023-03-29T15:51:19.660Z,8.55
2023-03-29T15:53:49.313Z,8.00
2023-03-29T15:56:18.213Z,7.50
2023-03-29T15:58:45.717Z,7.95
2023-03-29T16:01:23.620Z,8.30
2023-03-29T16:03:51.328Z,7.55
2023-03-29T16:06:18.608Z,7.60
2023-03-29T16:08:46.141Z,7.00
2023-03-29T16:11:13.585Z,7.18
2023-03-29T16:13:40.992Z,7.28
2023-03-29T16:16:10.409Z,7.55
2023-03-29T16:18:38.219Z,7.45
2023-03-29T16:21:06.314Z,7.07
2023-03-29T16:23:33.722Z,7.28
2023-03-29T16:26:01.244Z,6.70
2023-03-29T16:28:28.748Z,6.88
2023-03-29T16:30:56.290Z,6.22
2023-03-29T16:33:23.570Z,6.63
2023-03-29T16:35:51.139Z,5.93
2023-03-29T16:38:18.604Z,6.13
2023-03-29T16:40:49.423Z,6.25
2023-03-29T16:43:17.133Z,6.50
2023-03-29T16:45:44.451Z,6.25
2023-03-29T16:48:17.294Z,6.20
2023-03-29T16:50:45.300Z,6.72
2023-03-29T16:53:12.662Z,6.20
2023-03-29T16:55:40.374Z,5.85
2023-03-29T16:58:07.684Z,6.03
2023-03-29T17:00:35.103Z,5.75
2023-03-29T17:03:02.628Z,6.25
2023-03-29T17:05:29.924Z,7.82
2023-03-29T17:07:57.276Z,6.63
2023-03-29T17:10:25.435Z,5.88
2023-03-29T17:12:52.807Z,5.70
2023-03-29T17:15:20.139Z,5.75
2023-03-29T17:17:47.483Z,5.55
2023-03-29T17:20:15.397Z,5.60
2023-03-29T17:22:42.843Z,5.97
2023-03-29T17:25:10.574Z,5.55
2023-03-29T17:27:38.083Z,5.30
2023-03-29T17:30:06.955Z,5.45
2023-03-29T17:32:34.367Z,5.70
2023-03-29T17:35:01.706Z,5.43
2023-03-29T17:37:29.203Z,5.28
2023-03-29T17:39:56.778Z,5.72
2023-03-29T17:42:24.137Z,5.45
2023-03-29T17:44:51.450Z,7.28
2023-03-29T17:47:18.633Z,6.22
2023-03-29T17:49:45.901Z,6.10
2023-03-29T17:52:15.461Z,4.90
2023-03-29T17:54:42.755Z,5.70
2023-03-29T17:57:10.654Z,5.40
2023-03-29T17:59:38.021Z,5.30
2023-03-29T18:02:05.933Z,5.82
2023-03-29T18:04:33.970Z,6.07
2023-03-29T18:07:01.721Z,6.22
2023-03-29T18:09:30.902Z,5.75
2023-03-29T18:11:58.334Z,6.00
2023-03-29T18:14:25.736Z,5.35
2023-03-29T18:16:53.110Z,6.15
2023-03-29T18:19:20.605Z,5.45
2023-03-29T18:21:47.891Z,5.53
2023-03-29T18:24:16.074Z,5.07
2023-03-29T18:26:43.347Z,5.65
2023-03-29T18:29:10.635Z,5.88
2023-03-29T18:31:37.952Z,5.25
2023-03-29T18:34:05.200Z,5.07
2023-03-29T18:36:32.614Z,5.10
2023-03-29T18:39:05.852Z,4.70
2023-03-29T18:41:34.075Z,5.28
2023-03-29T18:44:01.469Z,4.50
2023-03-29T18:46:31.182Z,4.72
2023-03-29T18:49:00.550Z,4.53
2023-03-29T18:51:28.249Z,5.70
2023-03-29T18:53:55.999Z,4.93
2023-03-29T18:56:23.722Z,4.65
2023-03-29T18:58:51.421Z,4.82
2023-03-29T19:01:18.705Z,5.55
2023-03-29T19:03:46.263Z,5.20
2023-03-29T19:06:14.504Z,4.75
2023-03-29T19:11:11.396Z,4.75
2023-03-29T19:13:38.826Z,5.10
2023-03-29T19:16:06.465Z,4.53
2023-03-29T19:18:34.223Z,4.70
2023-03-29T19:21:01.571Z,5.30
2023-03-29T19:23:28.801Z,5.00
2023-03-29T19:25:57.077Z,4.78
2023-03-29T19:28:25.059Z,4.68
2023-03-29T19:30:52.934Z,4.82
2023-03-29T19:33:20.450Z,5.00
2023-03-29T19:35:47.714Z,4.90
2023-03-29T19:38:15.050Z,5.70
2023-03-29T19:40:45.554Z,5.45
2023-03-29T19:43:20.569Z,5.05
2023-03-29T19:45:48.464Z,4.95
2023-03-29T19:48:22.401Z,5.35
2023-03-29T19:50:54.194Z,5.20
2023-03-29T19:53:23.235Z,5.43
2023-03-29T19:55:50.533Z,5.50
2023-03-29T19:58:17.751Z,5.93
2023-03-29T20:00:45.060Z,5.20
2023-03-29T20:03:13.898Z,5.38
2023-03-29T20:05:41.356Z,5.55
2023-03-29T20:08:08.626Z,5.20
2023-03-29T20:10:36.981Z,5.25
2023-03-29T20:13:06.507Z,5.00
2023-03-29T20:15:33.878Z,5.55
2023-03-29T20:18:01.562Z,5.30
2023-03-29T20:20:29.847Z,5.22
2023-03-29T20:23:04.698Z,5.10
2023-03-29T20:25:33.157Z,5.13
2023-03-29T20:28:00.589Z,5.45
2023-03-29T20:30:27.847Z,4.63
2023-03-29T20:32:55.146Z,5.00
2023-03-29T20:35:22.395Z,5.18
2023-03-29T20:37:49.704Z,4.65
2023-03-29T20:40:17.667Z,4.90
2023-03-29T20:42:46.379Z,6.00
2023-03-29T20:45:18.315Z,5.50
2023-03-29T20:47:50.536Z,4.90
2023-03-29T20:50:18.844Z,4.90
2023-03-29T20:52:46.787Z,5.25
2023-03-29T20:55:16.737Z,5.10
2023-03-29T20:57:43.951Z,5.78
2023-03-29T21:00:11.951Z,5.18
2023-03-29T21:02:39.506Z,4.90
2023-03-29T21:05:08.530Z,4.97
2023-03-29T21:07:36.426Z,5.18
2023-03-29T21:10:03.715Z,5.47
2023-03-29T21:12:31.468Z,5.30
2023-03-29T21:14:58.731Z,5.35
2023-03-29T21:17:26.264Z,5.60
2023-03-29T21:19:54.848Z,5.78
2023-03-29T21:22:23.229Z,5.85
2023-03-29T21:24:50.494Z,6.07
2023-03-29T21:27:18.163Z,5.60
2023-03-29T21:29:45.649Z,6.07
2023-03-29T21:32:12.844Z,5.80
2023-03-29T21:34:40.626Z,6.05
2023-03-29T21:37:08.126Z,6.00
2023-03-29T21:39:35.444Z,5.18
2023-03-29T21:42:02.731Z,6.07
2023-03-29T21:44:31.951Z,5.80
2023-03-29T21:47:00.545Z,5.53
2023-03-29T21:49:27.750Z,5.55
2023-03-29T21:51:54.980Z,5.55
2023-03-29T21:54:22.274Z,5.50
2023-03-29T21:56:49.628Z,5.10
2023-03-29T21:59:16.838Z,5.13
2023-03-29T22:01:44.127Z,5.18
2023-03-29T22:04:11.705Z,5.25
2023-03-29T22:06:40.470Z,5.43
2023-03-29T22:09:07.865Z,4.72
2023-03-29T22:11:35.057Z,5.35
2023-03-29T22:14:02.308Z,4.88
2023-03-29T22:16:31.226Z,4.60
2023-03-29T22:18:58.433Z,4.95
2023-03-29T22:21:26.919Z,4.95
2023-03-29T22:23:55.943Z,5.05
2023-03-29T22:26:27.781Z,5.40
2023-03-29T22:28:55.050Z,4.72
2023-03-29T22:31:23.219Z,4.68
2023-03-29T22:33:50.796Z,4.47
2023-03-29T22:36:25.751Z,4.75
2023-03-29T22:38:53.597Z,4.38
2023-03-29T22:41:23.625Z,4.20
2023-03-29T22:43:52.473Z,4.20
2023-03-29T22:46:20.704Z,4.50
2023-03-29T22:48:48.208Z,4.70
2023-03-29T22:51:16.264Z,4.15
2023-03-29T22:53:43.520Z,4.38
2023-03-29T22:56:10.837Z,4.05
2023-03-29T22:58:38.255Z,4.10
2023-03-29T23:01:06.574Z,4.25
2023-03-29T23:03:34.227Z,3.97
2023-03-29T23:06:04.623Z,4.13
2023-03-29T23:08:32.626Z,4.15
2023-03-29T23:11:00.349Z,3.97
2023-03-29T23:13:29.286Z,3.95
2023-03-29T23:18:24.535Z,4.00
2023-03-29T23:20:54.572Z,4.40
2023-03-29T23:23:22.907Z,4.20
2023-03-29T23:25:50.889Z,4.00
2023-03-29T23:28:21.775Z,3.63
2023-03-29T23:30:56.947Z,3.90
2023-03-29T23:33:25.760Z,3.95
2023-03-29T23:35:53.368Z,3.90
2023-03-29T23:38:20.935Z,3.70
2023-03-29T23:40:55.728Z,4.10
2023-03-29T23:43:23.025Z,3.92
2023-03-29T23:45:55.751Z,3.90
2023-03-29T23:48:23.809Z,3.85
2023-03-29T23:50:51.227Z,3.83
2023-03-29T23:53:19.847Z,3.92
2023-03-29T23:55:48.420Z,3.83
2023-03-29T23:58:16.652Z,3.53
